Time;durP1;ratioP1;P1;durP2;ratioP2;P2;SDS_P1;SDS_P2;PMS_P1;PMS_P2;Temp;Humidity;BMP_temperature;BMP_pressure;BME280_temperature;BME280_humidity;BME280_pressure;Samples;Min_cycle;Max_cycle;Signal;HPM_P1;HPM_P2
2022/09/22 00:01:55;;;;;;;6.43;2.80;;;10.00;99.90;;;;;;4989177;28;20650;-77
2022/09/22 00:04:21;;;;;;;4.38;3.10;;;9.80;99.90;;;;;;5006145;28;20053;-77
2022/09/22 00:06:50;;;;;;;6.03;2.97;;;9.80;99.90;;;;;;5010191;28;20046;-77
2022/09/22 00:09:18;;;;;;;5.20;3.55;;;9.80;99.90;;;;;;5005560;28;20044;-77
2022/09/22 00:11:46;;;;;;;7.25;3.60;;;9.70;99.90;;;;;;5007717;28;20047;-78
2022/09/22 00:14:23;;;;;;;5.72;3.50;;;9.70;99.90;;;;;;5021855;28;20045;-77
2022/09/22 00:16:51;;;;;;;5.05;3.58;;;9.70;99.90;;;;;;5004608;28;20060;-77
2022/09/22 00:19:20;;;;;;;6.15;4.07;;;9.70;99.90;;;;;;4993377;28;20045;-77
2022/09/22 00:21:46;;;;;;;4.82;3.08;;;9.60;99.90;;;;;;5028034;28;20206;-77
2022/09/22 00:24:13;;;;;;;4.10;2.47;;;9.60;99.90;;;;;;5022835;28;20069;-77
2022/09/22 00:26:39;;;;;;;5.35;3.05;;;9.60;99.90;;;;;;5005425;28;20135;-77
2022/09/22 00:29:08;;;;;;;3.72;3.00;;;9.60;99.90;;;;;;5006281;28;20057;-77
2022/09/22 00:31:37;;;;;;;3.28;2.60;;;9.50;99.90;;;;;;5009002;28;20045;-77
2022/09/22 00:34:04;;;;;;;7.10;3.63;;;9.60;99.90;;;;;;5023248;28;20029;-77
2022/09/22 00:36:30;;;;;;;5.93;3.55;;;9.60;99.90;;;;;;5002913;28;20056;-77
2022/09/22 00:38:57;;;;;;;5.95;3.53;;;9.60;99.90;;;;;;5006147;28;20301;-77
2022/09/22 00:41:25;;;;;;;4.90;3.55;;;9.50;99.90;;;;;;5017398;28;20061;-76
2022/09/22 00:44:25;;;;;;;4.78;2.67;;;9.40;99.90;;;;;;5004580;28;20478;-77
2022/09/22 00:46:53;;;;;;;6.25;4.00;;;9.40;99.90;;;;;;5005091;28;20037;-78
2022/09/22 00:49:26;;;;;;;5.22;3.60;;;9.50;99.90;;;;;;5005888;28;20033;-77
2022/09/22 00:51:52;;;;;;;4.93;3.40;;;9.40;99.90;;;;;;5003713;28;20099;-77
2022/09/22 00:54:18;;;;;;;4.88;3.42;;;9.30;99.90;;;;;;4990396;28;20506;-79
2022/09/22 00:56:58;;;;;;;8.50;4.30;;;9.70;99.90;;;;;;5025222;28;20164;-77
2022/09/22 00:59:25;;;;;;;6.85;4.07;;;9.40;99.90;;;;;;4991740;28;20037;-78
2022/09/22 01:01:51;;;;;;;5.85;3.53;;;9.30;99.90;;;;;;4982665;28;20049;-77
2022/09/22 01:04:17;;;;;;;6.60;4.10;;;9.30;99.90;;;;;;4989835;28;20111;-79
2022/09/22 01:06:44;;;;;;;6.53;3.95;;;9.30;99.90;;;;;;4971549;28;20598;-77
2022/09/22 01:09:11;;;;;;;6.90;4.90;;;9.20;99.90;;;;;;5009214;28;20041;-79
2022/09/22 01:11:38;;;;;;;6.30;4.30;;;9.20;99.90;;;;;;5004568;28;20041;-77
2022/09/22 01:14:22;;;;;;;9.57;4.43;;;9.30;99.90;;;;;;5008910;28;20110;-77
2022/09/22 01:17:16;;;;;;;8.07;4.43;;;9.10;99.90;;;;;;5009402;28;20072;-78
2022/09/22 01:20:01;;;;;;;8.15;4.63;;;9.00;99.90;;;;;;5006359;28;20048;-77
2022/09/22 01:22:39;;;;;;;6.93;4.75;;;9.00;99.90;;;;;;5006780;28;20519;-78
2022/09/22 01:25:23;;;;;;;6.35;4.65;;;9.00;99.90;;;;;;5023731;28;20180;-78
2022/09/22 01:28:16;;;;;;;4.07;2.85;;;8.90;99.90;;;;;;5006878;28;20029;-76
2022/09/22 01:31:10;;;;;;;5.28;4.13;;;8.90;99.90;;;;;;5002867;28;20455;-77
2022/09/22 01:33:36;;;;;;;4.80;3.60;;;9.00;99.90;;;;;;4992850;28;20091;-77
2022/09/22 01:36:14;;;;;;;6.53;4.10;;;9.00;99.90;;;;;;5004527;28;20045;-79
2022/09/22 01:39:04;;;;;;;6.40;4.10;;;8.90;99.90;;;;;;5022427;28;20041;-77
2022/09/22 01:41:58;;;;;;;4.80;3.20;;;8.80;99.90;;;;;;5002798;28;20516;-77
2022/09/22 01:44:32;;;;;;;6.97;3.45;;;9.00;99.90;;;;;;5009957;28;20053;-77
2022/09/22 01:47:10;;;;;;;5.05;3.20;;;8.80;99.90;;;;;;5006326;28;20042;-78
2022/09/22 01:49:44;;;;;;;4.25;3.40;;;8.80;99.90;;;;;;5005493;28;20065;-78
2022/09/22 01:52:16;;;;;;;;;;;8.90;99.90;;;;;;4985520;28;20052;-77
2022/09/22 01:54:57;;;;;;;4.97;3.75;;;8.70;99.90;;;;;;5002886;28;20011;-77
2022/09/22 01:57:48;;;;;;;6.32;3.92;;;8.70;99.90;;;;;;4994162;28;20096;-78
2022/09/22 02:00:14;;;;;;;7.30;4.35;;;8.70;99.90;;;;;;4965716;28;20204;-77
2022/09/22 02:03:01;;;;;;;5.93;3.72;;;8.60;99.90;;;;;;5020506;28;20187;-78
2022/09/22 02:05:42;;;;;;;5.13;3.53;;;8.60;99.90;;;;;;5019045;28;20095;-78
2022/09/22 02:08:26;;;;;;;4.18;2.50;;;8.60;99.90;;;;;;4995503;28;20041;-77
2022/09/22 02:10:54;;;;;;;4.50;3.05;;;8.60;99.90;;;;;;5008819;28;20513;-78
2022/09/22 02:13:20;;;;;;;6.35;3.65;;;8.60;99.90;;;;;;5029280;28;20037;-77
2022/09/22 02:16:00;;;;;;;7.13;3.78;;;8.60;99.90;;;;;;4997794;28;20052;-77
2022/09/22 02:18:38;;;;;;;7.95;3.40;;;8.50;99.90;;;;;;5010261;28;20136;-78
2022/09/22 02:21:04;;;;;;;4.68;3.85;;;8.50;99.90;;;;;;5014098;28;20053;-77
2022/09/22 02:23:31;;;;;;;4.10;3.45;;;8.50;99.90;;;;;;4982858;28;20466;-78
2022/09/22 02:25:58;;;;;;;4.57;3.08;;;8.50;99.90;;;;;;5008684;28;20645;-78
2022/09/22 02:28:25;;;;;;;4.28;2.85;;;8.50;99.90;;;;;;5023480;28;20498;-77
2022/09/22 02:30:54;;;;;;;3.08;2.50;;;8.40;99.90;;;;;;5004369;28;20512;-77
2022/09/22 02:33:22;;;;;;;4.75;2.85;;;8.40;99.90;;;;;;4986911;28;20124;-77
2022/09/22 02:36:00;;;;;;;5.75;3.25;;;8.40;99.90;;;;;;5022618;28;20048;-78
2022/09/22 02:38:53;;;;;;;3.58;2.67;;;8.40;99.90;;;;;;5007063;28;20128;-77
2022/09/22 02:41:28;;;;;;;4.70;2.92;;;8.40;99.90;;;;;;5002860;28;20044;-77
2022/09/22 02:44:05;;;;;;;5.03;2.17;;;8.50;99.90;;;;;;5002081;28;20045;-76
2022/09/22 02:46:38;;;;;;;4.00;2.95;;;8.40;99.90;;;;;;5017574;28;20050;-78
2022/09/22 02:49:14;;;;;;;4.35;2.88;;;8.40;99.90;;;;;;5011016;28;20076;-78
2022/09/22 02:51:41;;;;;;;3.83;2.70;;;8.40;99.90;;;;;;5020062;28;20597;-76
2022/09/22 02:54:06;;;;;;;3.53;2.78;;;8.30;99.90;;;;;;5010057;28;20049;-78
2022/09/22 02:56:32;;;;;;;4.70;2.78;;;8.30;99.90;;;;;;5005063;28;20038;-78
2022/09/22 02:58:58;;;;;;;2.50;1.92;;;8.20;99.90;;;;;;5007450;28;20072;-77
2022/09/22 03:01:24;;;;;;;4.05;2.92;;;8.20;99.90;;;;;;4966741;28;21009;-77
2022/09/22 03:03:50;;;;;;;5.70;2.92;;;8.70;99.90;;;;;;5003876;28;20057;-78
2022/09/22 03:06:16;;;;;;;3.45;2.15;;;8.50;99.90;;;;;;5002615;28;20128;-77
2022/09/22 03:08:42;;;;;;;2.38;1.83;;;8.20;99.90;;;;;;5001615;28;20128;-75
2022/09/22 03:11:08;;;;;;;3.33;2.20;;;8.20;99.90;;;;;;4988406;28;20604;-79
2022/09/22 03:13:33;;;;;;;3.22;2.45;;;8.40;99.90;;;;;;5000777;28;20042;-78
2022/09/22 03:15:59;;;;;;;2.97;2.40;;;8.30;99.90;;;;;;4972589;28;20044;-77
2022/09/22 03:18:25;;;;;;;3.25;2.25;;;8.30;99.90;;;;;;4989598;28;20502;-77
2022/09/22 03:20:50;;;;;;;2.78;2.10;;;8.30;99.90;;;;;;5018042;28;20033;-77
2022/09/22 03:23:16;;;;;;;4.80;3.03;;;8.40;99.90;;;;;;5005005;28;20041;-78
2022/09/22 03:25:42;;;;;;;5.40;2.92;;;8.40;99.90;;;;;;4998969;28;20041;-77
2022/09/22 03:28:08;;;;;;;5.07;2.80;;;8.30;99.90;;;;;;5005256;28;20053;-77
2022/09/22 03:30:36;;;;;;;5.03;2.80;;;8.30;99.90;;;;;;5021037;28;20520;-77
2022/09/22 03:33:02;;;;;;;3.85;2.55;;;8.20;99.90;;;;;;4985909;28;20084;-77
2022/09/22 03:35:28;;;;;;;4.47;2.92;;;8.30;99.90;;;;;;5004819;28;20046;-77
2022/09/22 03:37:53;;;;;;;5.30;2.97;;;8.30;99.90;;;;;;4998329;28;20029;-78
2022/09/22 03:40:20;;;;;;;4.13;2.88;;;8.40;99.90;;;;;;4989139;28;20045;-79
2022/09/22 03:42:46;;;;;;;4.70;3.10;;;8.20;99.90;;;;;;4981730;28;20038;-77
2022/09/22 03:45:13;;;;;;;3.83;2.50;;;8.20;99.90;;;;;;4991996;28;20563;-77
2022/09/22 03:47:39;;;;;;;3.42;2.22;;;8.10;99.90;;;;;;5003163;28;20037;-77
2022/09/22 03:50:05;;;;;;;3.88;2.40;;;8.10;99.90;;;;;;4989421;28;20090;-77
2022/09/22 03:52:32;;;;;;;5.03;2.97;;;8.00;99.90;;;;;;5003297;28;20379;-78
2022/09/22 03:54:58;;;;;;;3.63;2.30;;;8.00;99.90;;;;;;4988628;28;20076;-77
2022/09/22 03:57:24;;;;;;;2.90;2.17;;;8.00;99.90;;;;;;4991602;28;20157;-77
2022/09/22 03:59:51;;;;;;;2.88;2.10;;;8.10;99.90;;;;;;5014874;28;20560;-77
2022/09/22 04:02:17;;;;;;;3.08;1.95;;;8.30;99.90;;;;;;4958287;28;20064;-78
2022/09/22 04:04:43;;;;;;;3.33;2.35;;;7.90;99.90;;;;;;5006095;28;20044;-76
2022/09/22 04:07:08;;;;;;;3.63;2.50;;;8.10;99.90;;;;;;4989288;28;20042;-77
2022/09/22 04:09:34;;;;;;;6.10;2.58;;;8.10;99.90;;;;;;5018410;28;20045;-78
2022/09/22 04:12:00;;;;;;;3.88;2.60;;;8.10;99.90;;;;;;5021814;28;20120;-76
2022/09/22 04:14:26;;;;;;;5.13;2.50;;;8.10;99.90;;;;;;4973818;28;20064;-77
2022/09/22 04:16:53;;;;;;;3.13;2.17;;;8.20;99.90;;;;;;5000820;28;20068;-77
2022/09/22 04:19:19;;;;;;;3.95;3.28;;;8.60;99.90;;;;;;5009672;28;20044;-77
2022/09/22 04:21:44;;;;;;;5.32;3.28;;;8.00;99.90;;;;;;4983045;28;20041;-77
2022/09/22 04:24:10;;;;;;;4.00;2.42;;;8.10;99.90;;;;;;5018799;28;20042;-77
2022/09/22 04:26:39;;;;;;;4.97;2.60;;;7.90;99.90;;;;;;4983162;28;20098;-77
2022/09/22 04:29:05;;;;;;;3.90;2.90;;;7.90;99.90;;;;;;5007402;28;20648;-77
2022/09/22 04:31:30;;;;;;;4.55;2.85;;;7.90;99.90;;;;;;4998457;28;20068;-78
2022/09/22 04:33:56;;;;;;;5.43;2.97;;;7.80;99.90;;;;;;5025625;28;20073;-77
2022/09/22 04:36:22;;;;;;;5.90;3.28;;;7.80;99.90;;;;;;4976920;28;20037;-78
2022/09/22 04:38:47;;;;;;;6.70;3.08;;;7.90;99.90;;;;;;4990608;28;20045;-76
2022/09/22 04:41:13;;;;;;;3.67;2.92;;;7.90;99.90;;;;;;5011250;28;20045;-78
2022/09/22 04:43:39;;;;;;;4.88;2.92;;;8.40;99.90;;;;;;5025894;28;20413;-78
2022/09/22 04:46:05;;;;;;;4.80;3.10;;;7.80;99.90;;;;;;5006786;28;20041;-77
2022/09/22 04:48:31;;;;;;;4.28;2.90;;;7.80;99.90;;;;;;5030977;28;20056;-79
2022/09/22 04:50:56;;;;;;;4.45;2.63;;;7.80;99.90;;;;;;5008789;28;20048;-78
2022/09/22 04:53:22;;;;;;;4.28;2.42;;;7.80;99.90;;;;;;4976164;28;20049;-78
2022/09/22 04:55:49;;;;;;;5.53;2.63;;;7.80;99.90;;;;;;4992435;28;20124;-77
2022/09/22 04:58:15;;;;;;;3.45;2.38;;;7.80;99.90;;;;;;5000004;28;20049;-77
2022/09/22 05:00:41;;;;;;;5.20;2.67;;;7.70;99.90;;;;;;4994777;28;20124;-78
2022/09/22 05:03:11;;;;;;;4.40;2.58;;;7.60;99.90;;;;;;5008662;28;20132;-78
2022/09/22 05:05:38;;;;;;;3.95;2.30;;;7.70;99.90;;;;;;4992350;28;20041;-79
2022/09/22 05:08:04;;;;;;;3.38;2.40;;;7.60;99.90;;;;;;5022694;28;20037;-79
2022/09/22 05:10:31;;;;;;;4.35;2.80;;;7.70;99.90;;;;;;4987565;28;20048;-78
2022/09/22 05:12:57;;;;;;;4.07;2.55;;;7.70;99.90;;;;;;5006361;28;20519;-79
2022/09/22 05:15:24;;;;;;;5.45;2.50;;;7.60;99.90;;;;;;4989667;28;20034;-80
2022/09/22 05:17:52;;;;;;;5.45;2.75;;;7.60;99.90;;;;;;4960948;28;20040;-79
2022/09/22 05:20:19;;;;;;;3.92;3.00;;;7.60;99.90;;;;;;5006402;28;20041;-79
2022/09/22 05:22:46;;;;;;;7.97;4.65;;;7.60;99.90;;;;;;5008594;28;20579;-78
2022/09/22 05:25:15;;;;;;;7.43;5.00;;;7.50;99.90;;;;;;4985858;28;20502;-78
2022/09/22 05:27:46;;;;;;;5.88;3.17;;;7.60;99.90;;;;;;5009725;28;20607;-76
2022/09/22 05:30:12;;;;;;;5.38;2.42;;;7.60;99.90;;;;;;5010135;28;20037;-77
2022/09/22 05:32:40;;;;;;;3.53;2.00;;;7.60;99.90;;;;;;5016973;28;20033;-78
2022/09/22 05:35:06;;;;;;;4.18;2.58;;;7.70;99.90;;;;;;4996414;28;20037;-79
2022/09/22 05:37:32;;;;;;;6.70;2.75;;;7.70;99.90;;;;;;5022718;28;20029;-77
2022/09/22 05:39:57;;;;;;;4.30;3.17;;;7.80;99.90;;;;;;5007545;28;20091;-77
2022/09/22 05:42:23;;;;;;;2.90;2.30;;;7.80;99.90;;;;;;4999376;28;20045;-77
2022/09/22 05:44:49;;;;;;;9.82;2.95;;;7.90;99.90;;;;;;5001935;28;20029;-78
2022/09/22 05:47:14;;;;;;;8.27;3.00;;;7.80;99.90;;;;;;5026393;28;20125;-78
2022/09/22 05:49:40;;;;;;;5.68;2.95;;;7.90;99.90;;;;;;5003533;28;20095;-78
2022/09/22 05:52:06;;;;;;;3.15;1.90;;;7.90;99.90;;;;;;5021674;28;20045;-78
2022/09/22 05:54:32;;;;;;;4.75;2.90;;;7.90;99.90;;;;;;5007948;28;20497;-79
2022/09/22 05:56:57;;;;;;;4.25;2.63;;;8.00;99.90;;;;;;4991858;28;20124;-78
2022/09/22 05:59:23;;;;;;;4.05;2.67;;;8.00;99.90;;;;;;4987159;28;20053;-78
2022/09/22 06:01:48;;;;;;;6.22;3.22;;;8.00;99.90;;;;;;5006634;28;20037;-79
2022/09/22 06:04:14;;;;;;;5.75;3.40;;;8.10;99.90;;;;;;5018513;28;20505;-79
2022/09/22 06:06:40;;;;;;;6.57;3.00;;;8.10;99.90;;;;;;5003922;28;20110;-79
2022/09/22 06:09:06;;;;;;;5.15;3.53;;;8.10;99.90;;;;;;4976436;28;20033;-77
2022/09/22 06:11:32;;;;;;;4.82;2.88;;;8.10;99.90;;;;;;4992424;28;20036;-79
2022/09/22 06:13:58;;;;;;;5.68;4.10;;;8.20;99.90;;;;;;5015790;28;20236;-79
2022/09/22 06:16:23;;;;;;;9.57;3.90;;;8.40;99.90;;;;;;5003291;28;20056;-79
2022/09/22 06:18:49;;;;;;;5.95;3.70;;;8.40;99.90;;;;;;5026048;28;20048;-78
2022/09/22 06:21:17;;;;;;;7.90;3.75;;;8.40;99.90;;;;;;4994189;28;20394;-80
2022/09/22 06:23:43;;;;;;;7.00;4.50;;;8.50;99.90;;;;;;5022833;28;20041;-78
2022/09/22 06:26:09;;;;;;;7.78;4.07;;;8.50;99.90;;;;;;4990018;28;20615;-76
2022/09/22 06:28:35;;;;;;;11.82;4.03;;;8.60;99.90;;;;;;5001566;28;20033;-76
2022/09/22 06:31:01;;;;;;;7.78;5.00;;;8.70;99.90;;;;;;5004905;28;20033;-78
2022/09/22 06:33:28;;;;;;;11.52;6.13;;;8.80;99.90;;;;;;4999670;28;20121;-80
2022/09/22 06:35:53;;;;;;;5.22;3.85;;;9.00;99.90;;;;;;5034639;28;20306;-80
2022/09/22 06:38:20;;;;;;;10.82;6.95;;;9.10;99.90;;;;;;4991125;28;20037;-79
2022/09/22 06:40:46;;;;;;;5.95;4.53;;;9.20;99.90;;;;;;5008080;28;20069;-78
2022/09/22 06:43:16;;;;;;;9.80;5.03;;;9.30;99.90;;;;;;4995269;28;20046;-78
2022/09/22 06:45:41;;;;;;;8.88;5.15;;;9.40;99.90;;;;;;4988259;28;20389;-79
2022/09/22 06:48:11;;;;;;;8.50;5.60;;;9.50;99.90;;;;;;5005457;28;20121;-79
2022/09/22 06:50:39;;;;;;;7.18;3.60;;;9.60;99.90;;;;;;4987439;28;20343;-79
2022/09/22 06:53:07;;;;;;;11.40;5.90;;;9.60;99.90;;;;;;4972787;28;20034;-81
2022/09/22 06:55:34;;;;;;;9.00;4.55;;;9.70;99.90;;;;;;5001865;28;20442;-78
2022/09/22 06:58:01;;;;;;;8.05;5.18;;;9.80;99.90;;;;;;5008269;28;20038;-79
2022/09/22 07:00:32;;;;;;;7.82;5.78;;;10.00;99.90;;;;;;4980696;28;20472;-79
2022/09/22 07:03:07;;;;;;;9.20;5.57;;;10.10;99.90;;;;;;5007162;28;20068;-79
2022/09/22 07:05:34;;;;;;;7.47;5.30;;;10.20;99.90;;;;;;5001714;28;20041;-79
2022/09/22 07:08:00;;;;;;;8.18;4.93;;;10.30;99.90;;;;;;5006560;28;20083;-79
2022/09/22 07:10:26;;;;;;;13.23;5.40;;;10.50;99.90;;;;;;5001674;28;20068;-78
2022/09/22 07:12:53;;;;;;;11.10;5.18;;;10.60;99.90;;;;;;4999985;28;20102;-79
2022/09/22 07:15:19;;;;;;;7.80;4.90;;;10.80;99.90;;;;;;4979773;28;20045;-78
2022/09/22 07:17:44;;;;;;;9.02;5.13;;;10.90;99.90;;;;;;5005687;28;20782;-78
2022/09/22 07:20:11;;;;;;;7.70;4.60;;;11.00;99.90;;;;;;5004790;28;20114;-79
2022/09/22 07:22:38;;;;;;;5.47;4.38;;;11.10;99.90;;;;;;5004372;28;20053;-78
2022/09/22 07:25:07;;;;;;;9.05;4.65;;;12.00;99.90;;;;;;5004297;28;20045;-79
2022/09/22 07:27:33;;;;;;;7.20;4.90;;;11.40;99.90;;;;;;4998827;28;20037;-78
2022/09/22 07:29:58;;;;;;;7.28;4.90;;;11.60;99.90;;;;;;4992300;28;20041;-78
2022/09/22 07:32:29;;;;;;;8.52;4.53;;;11.70;99.90;;;;;;4956483;28;20034;-79
2022/09/22 07:34:55;;;;;;;7.15;4.38;;;11.80;99.90;;;;;;4951902;28;20041;-77
2022/09/22 07:37:23;;;;;;;11.52;4.97;;;12.00;99.90;;;;;;5013305;28;20560;-77
2022/09/22 07:39:48;;;;;;;9.32;3.97;;;12.00;99.90;;;;;;5003504;28;20029;-78
2022/09/22 07:42:15;;;;;;;12.98;4.90;;;12.20;99.90;;;;;;5017441;28;20044;-79
2022/09/22 07:50:10;;;;;;;;;;;12.60;99.90;;;;;;5019825;28;20171;-78
2022/09/22 07:52:36;;;;;;;5.82;3.40;;;12.60;99.90;;;;;;4999831;28;19921;-78
2022/09/22 07:55:01;;;;;;;6.22;3.47;;;12.60;99.90;;;;;;5000103;28;20532;-78
2022/09/22 07:57:32;;;;;;;10.15;4.32;;;12.80;99.90;;;;;;4997118;28;20046;-79
2022/09/22 07:59:58;;;;;;;7.15;4.40;;;12.80;99.90;;;;;;5020138;28;20095;-79
2022/09/22 08:02:27;;;;;;;5.80;3.75;;;12.80;99.90;;;;;;5005789;28;20049;-78
2022/09/22 08:05:01;;;;;;;5.78;3.17;;;13.00;99.90;;;;;;4974911;28;20152;-78
2022/09/22 08:07:36;;;;;;;;;;;13.10;99.90;;;;;;5015872;28;20037;-78
2022/09/22 08:10:01;;;;;;;;;;;13.20;99.90;;;;;;5019340;28;19921;-80
2022/09/22 08:12:27;;;;;;;4.68;2.85;;;13.30;99.90;;;;;;5023008;28;19917;-79
2022/09/22 08:14:54;;;;;;;6.40;3.13;;;13.50;99.90;;;;;;5005476;28;20033;-78
2022/09/22 08:17:20;;;;;;;7.05;3.67;;;13.50;99.90;;;;;;5002566;28;20630;-78
2022/09/22 08:19:46;;;;;;;6.35;3.40;;;13.60;99.90;;;;;;4983150;28;20129;-78
2022/09/22 08:22:12;;;;;;;6.05;2.72;;;13.70;99.90;;;;;;5019522;28;20045;-78
2022/09/22 08:24:37;;;;;;;5.82;2.90;;;13.90;99.90;;;;;;5005391;28;20124;-78
2022/09/22 08:27:03;;;;;;;6.45;3.08;;;14.00;99.90;;;;;;4960950;28;20065;-79
2022/09/22 08:29:30;;;;;;;8.13;2.65;;;14.10;99.90;;;;;;5021462;28;20041;-78
2022/09/22 08:31:55;;;;;;;6.97;3.28;;;14.30;99.90;;;;;;4977755;28;20045;-78
2022/09/22 08:34:21;;;;;;;6.13;3.15;;;14.40;99.90;;;;;;4999098;28;20044;-78
2022/09/22 08:36:47;;;;;;;7.82;3.33;;;14.50;99.90;;;;;;4972322;28;20129;-78
2022/09/22 08:39:14;;;;;;;6.10;3.13;;;14.60;99.90;;;;;;4985422;28;20096;-78
2022/09/22 08:41:55;;;;;;;5.68;2.88;;;14.70;99.90;;;;;;5003599;28;20498;-77
2022/09/22 08:44:29;;;;;;;7.90;3.22;;;14.80;99.90;;;;;;4988796;28;20049;-80
2022/09/22 08:46:59;;;;;;;7.80;3.08;;;15.00;99.90;;;;;;4999761;28;20054;-78
2022/09/22 08:52:43;;;;;;;4.22;2.38;;;15.20;99.90;;;;;;5016420;28;20086;-79
2022/09/22 08:55:24;;;;;;;4.32;2.40;;;15.30;99.90;;;;;;5016670;28;20099;-78
2022/09/22 08:58:11;;;;;;;8.48;3.38;;;15.50;99.90;;;;;;4998864;28;20038;-78
2022/09/22 09:00:46;;;;;;;5.95;2.90;;;15.60;99.90;;;;;;5021048;28;20099;-79
2022/09/22 09:03:23;;;;;;;6.47;2.58;;;15.70;99.90;;;;;;4989139;28;20042;-79
2022/09/22 09:06:11;;;;;;;5.65;2.13;;;15.80;99.90;;;;;;5013031;28;20213;-79
2022/09/22 09:08:42;;;;;;;4.53;1.85;;;16.00;99.90;;;;;;4997315;28;20124;-78
2022/09/22 09:11:11;;;;;;;6.13;2.47;;;16.10;99.70;;;;;;4979502;28;20125;-79
2022/09/22 09:13:41;;;;;;;4.63;2.38;;;16.20;99.50;;;;;;5004523;28;20849;-77
2022/09/22 09:16:15;;;;;;;6.07;2.00;;;16.20;98.80;;;;;;4998831;28;20049;-77
2022/09/22 09:18:49;;;;;;;4.50;2.28;;;16.30;98.60;;;;;;5011411;28;20064;-76
2022/09/22 09:21:14;;;;;;;5.80;2.78;;;16.40;98.60;;;;;;4990346;28;20057;-78
2022/09/22 09:23:46;;;;;;;5.55;2.20;;;16.50;98.70;;;;;;4977280;28;20096;-78
2022/09/22 09:26:14;;;;;;;5.38;2.10;;;16.60;98.70;;;;;;5010777;28;20417;-78
2022/09/22 09:28:48;;;;;;;6.00;2.30;;;16.60;98.40;;;;;;5027527;28;20045;-77
2022/09/22 09:31:27;;;;;;;5.32;2.65;;;16.70;97.90;;;;;;5008856;28;20041;-77
2022/09/22 09:34:04;;;;;;;5.82;2.80;;;16.80;97.50;;;;;;4998656;28;20469;-77
2022/09/22 09:36:41;;;;;;;5.60;2.60;;;16.80;97.30;;;;;;5008537;28;20192;-78
2022/09/22 09:39:36;;;;;;;8.82;2.67;;;16.90;97.60;;;;;;4995924;28;20045;-77
2022/09/22 09:42:25;;;;;;;5.53;2.70;;;17.30;97.10;;;;;;4996479;28;20063;-78
2022/09/22 09:44:53;;;;;;;5.80;2.50;;;17.10;97.00;;;;;;5007568;28;20038;-77
2022/09/22 09:47:21;;;;;;;6.05;4.03;;;17.20;96.90;;;;;;5007458;28;20041;-77
2022/09/22 09:49:49;;;;;;;8.80;3.50;;;17.30;96.70;;;;;;5002058;28;20410;-78
2022/09/22 09:52:15;;;;;;;7.13;3.95;;;17.40;96.40;;;;;;4980228;28;20092;-78
2022/09/22 09:54:45;;;;;;;7.65;3.60;;;17.50;96.10;;;;;;5007386;28;20448;-78
2022/09/22 09:57:14;;;;;;;6.55;3.42;;;17.60;96.10;;;;;;5008103;28;20435;-77
2022/09/22 10:02:49;;;;;;;6.65;3.25;;;17.80;95.70;;;;;;4931758;28;20451;-77
2022/09/22 10:05:15;;;;;;;8.77;4.72;;;17.90;95.70;;;;;;4922991;28;20040;-76
2022/09/22 10:07:57;;;;;;;6.57;4.05;;;18.00;95.70;;;;;;4955919;28;20040;-75
2022/09/22 10:10:28;;;;;;;6.90;4.15;;;18.10;95.50;;;;;;5014188;28;20351;-77
2022/09/22 10:13:46;;;;;;;9.45;3.60;;;18.10;95.10;;;;;;5016398;28;20038;-76
2022/09/22 10:16:20;;;;;;;9.23;4.40;;;18.20;94.40;;;;;;4975307;28;20537;-76
2022/09/22 10:18:47;;;;;;;;;;;18.30;94.60;;;;;;5017399;28;20525;-76
2022/09/22 10:21:22;;;;;;;10.32;4.38;;;18.20;93.60;;;;;;4985748;28;19959;-76
2022/09/22 10:23:56;;;;;;;8.82;3.80;;;18.40;94.30;;;;;;5011539;28;20164;-78
2022/09/22 10:26:28;;;;;;;6.72;4.18;;;18.30;94.00;;;;;;4984832;28;20045;-77
2022/09/22 10:29:18;;;;;;;7.07;3.38;;;18.50;93.80;;;;;;5009222;28;20406;-77
2022/09/22 10:32:15;;;;;;;5.38;3.75;;;18.60;93.00;;;;;;5018056;28;20493;-78
2022/09/22 10:34:49;;;;;;;6.32;3.33;;;18.70;92.80;;;;;;4982638;28;20363;-78
2022/09/22 10:37:19;;;;;;;6.35;3.75;;;18.80;92.80;;;;;;5001016;28;20041;-78
2022/09/22 10:39:51;;;;;;;6.40;3.83;;;18.90;92.30;;;;;;5004846;28;20048;-78
2022/09/22 10:42:24;;;;;;;6.50;3.92;;;18.90;91.60;;;;;;5004624;28;20037;-78
2022/09/22 10:44:51;;;;;;;7.32;3.75;;;19.00;92.00;;;;;;5022686;28;20048;-79
2022/09/22 10:47:37;;;;;;;5.55;3.55;;;19.00;91.80;;;;;;5012846;28;20775;-80
2022/09/22 10:50:35;;;;;;;7.38;4.13;;;19.20;91.80;;;;;;4985370;28;20094;-80
2022/09/22 10:53:10;;;;;;;14.80;5.00;;;19.30;91.10;;;;;;5002573;28;20033;-81
2022/09/22 10:55:57;;;;;;;8.15;4.70;;;19.30;91.40;;;;;;5034140;28;20124;-80
2022/09/22 10:58:35;;;;;;;10.10;4.78;;;19.40;90.50;;;;;;5040249;28;20067;-79
2022/09/22 11:01:30;;;;;;;11.07;6.10;;;19.40;90.30;;;;;;5021688;28;20073;-79
2022/09/22 11:04:07;;;;;;;8.77;4.75;;;19.20;87.30;;;;;;4979714;28;20418;-81
2022/09/22 11:12:58;;;;;;;13.90;5.35;;;19.50;90.20;;;;;;5030073;28;20390;-82
2022/09/22 11:16:02;;;;;;;7.85;4.68;;;19.70;89.70;;;;;;5011793;28;20409;-82
2022/09/22 11:18:28;;;;;;;6.28;4.22;;;19.70;87.10;;;;;;4982087;28;20394;-82
2022/09/22 11:21:20;;;;;;;11.00;5.15;;;19.60;88.00;;;;;;5028013;28;20052;-81
2022/09/22 11:23:57;;;;;;;8.05;4.63;;;19.70;88.20;;;;;;5024524;28;20041;-81
2022/09/22 11:26:48;;;;;;;8.45;4.90;;;19.90;88.80;;;;;;5027990;28;20072;-81
2022/09/22 11:29:40;;;;;;;7.75;4.90;;;20.10;86.70;;;;;;5011180;28;20041;-79
2022/09/22 11:32:27;;;;;;;8.15;5.45;;;20.10;86.70;;;;;;4985455;28;20058;-79
2022/09/22 11:35:11;;;;;;;9.45;5.60;;;20.30;86.40;;;;;;5008859;28;20030;-80
2022/09/22 11:38:22;;;;;;;9.35;5.65;;;20.40;86.10;;;;;;4991825;28;20041;-80
2022/09/22 11:41:01;;;;;;;11.20;6.78;;;20.20;82.80;;;;;;4975701;28;20060;-80
2022/09/22 11:44:05;;;;;;;11.25;6.30;;;19.90;84.80;;;;;;5034933;28;20064;-80
2022/09/22 11:46:55;;;;;;;11.02;7.45;;;19.80;86.20;;;;;;4966938;28;20092;-79
2022/09/22 11:49:27;;;;;;;12.15;7.20;;;19.90;86.40;;;;;;5032485;28;20110;-79
2022/09/22 11:52:04;;;;;;;12.55;8.05;;;20.00;86.00;;;;;;5011344;28;20040;-79
2022/09/22 11:54:51;;;;;;;12.68;7.40;;;20.20;85.50;;;;;;5007647;28;20045;-79
2022/09/22 11:57:22;;;;;;;13.02;8.00;;;20.30;85.10;;;;;;5025183;28;20129;-79
2022/09/22 12:00:04;;;;;;;11.65;7.28;;;20.10;84.20;;;;;;5014205;28;20050;-79
2022/09/22 12:03:03;;;;;;;11.45;6.97;;;20.10;83.80;;;;;;5012796;28;20033;-79
2022/09/22 12:05:49;;;;;;;12.77;7.63;;;20.10;85.50;;;;;;4956410;28;20053;-78
2022/09/22 12:08:21;;;;;;;9.18;5.95;;;20.40;85.20;;;;;;5008273;28;20042;-79
2022/09/22 12:10:49;;;;;;;10.80;6.47;;;20.40;85.00;;;;;;5006456;28;20451;-78
2022/09/22 12:13:19;;;;;;;12.90;6.78;;;20.30;84.30;;;;;;5006245;28;20069;-79
2022/09/22 12:16:06;;;;;;;9.73;5.97;;;20.10;84.30;;;;;;5005373;28;20073;-79
2022/09/22 12:19:12;;;;;;;9.65;6.50;;;20.20;83.90;;;;;;4999727;28;20034;-79
2022/09/22 12:22:10;;;;;;;12.10;5.65;;;20.30;83.30;;;;;;5004895;28;20510;-79
2022/09/22 12:24:35;;;;;;;8.93;5.30;;;20.40;84.50;;;;;;4964162;28;20121;-78
2022/09/22 12:27:25;;;;;;;8.48;4.88;;;20.30;84.40;;;;;;5014735;28;20041;-78
2022/09/22 12:30:03;;;;;;;9.80;5.85;;;20.20;83.20;;;;;;4998660;28;20037;-79
2022/09/22 12:32:38;;;;;;;8.27;5.60;;;20.10;84.20;;;;;;5012973;28;20585;-79
2022/09/22 12:35:04;;;;;;;10.25;6.40;;;20.10;83.60;;;;;;4998974;28;20037;-79
2022/09/22 12:37:38;;;;;;;7.85;5.45;;;20.40;83.60;;;;;;5000515;28;20039;-79
2022/09/22 12:40:13;;;;;;;10.18;6.68;;;20.50;83.40;;;;;;5015673;28;20034;-76
2022/09/22 12:42:42;;;;;;;11.98;6.32;;;20.60;81.90;;;;;;5013406;28;20037;-79
2022/09/22 12:45:07;;;;;;;9.75;5.50;;;20.40;82.20;;;;;;5012850;28;20049;-77
2022/09/22 12:47:40;;;;;;;11.02;5.88;;;20.50;82.40;;;;;;5010887;28;20029;-76
2022/09/22 12:50:32;;;;;;;9.90;5.85;;;20.70;81.70;;;;;;5013642;28;20076;-79
2022/09/22 12:53:02;;;;;;;8.88;6.00;;;20.90;79.40;;;;;;4995939;28;20095;-79
2022/09/22 12:55:27;;;;;;;12.20;5.97;;;21.00;79.70;;;;;;5004757;28;20110;-79
2022/09/22 12:58:01;;;;;;;9.50;5.80;;;20.80;80.20;;;;;;5015976;28;20042;-78
2022/09/22 13:00:38;;;;;;;12.45;5.82;;;20.80;81.20;;;;;;4988337;28;20053;-77
2022/09/22 13:03:26;;;;;;;9.02;5.60;;;20.90;81.30;;;;;;5002586;28;20235;-77
2022/09/22 13:05:51;;;;;;;11.75;6.45;;;20.90;80.80;;;;;;5020454;28;20541;-77
2022/09/22 13:08:29;;;;;;;9.25;6.30;;;20.90;80.80;;;;;;5023475;28;20077;-79
2022/09/22 13:11:01;;;;;;;11.52;5.45;;;21.00;81.70;;;;;;5005809;28;20075;-78
2022/09/22 13:13:30;;;;;;;8.10;5.35;;;21.10;81.50;;;;;;5004075;28;20037;-77
2022/09/22 13:15:56;;;;;;;7.25;5.38;;;21.10;81.10;;;;;;5019955;28;20041;-77
2022/09/22 13:18:35;;;;;;;11.13;5.65;;;21.10;80.90;;;;;;5019560;28;20551;-78
2022/09/22 13:21:17;;;;;;;6.95;5.25;;;21.10;80.10;;;;;;4991593;28;20060;-78
2022/09/22 13:23:57;;;;;;;7.60;5.30;;;21.10;81.20;;;;;;5022489;28;20034;-78
2022/09/22 13:26:25;;;;;;;8.02;4.93;;;21.20;80.60;;;;;;5007981;28;20411;-79
2022/09/22 13:29:19;;;;;;;7.65;5.47;;;21.20;81.20;;;;;;5015629;28;20489;-78
2022/09/22 13:31:53;;;;;;;6.77;4.57;;;21.20;79.90;;;;;;5008077;28;20061;-78
2022/09/22 13:34:36;;;;;;;7.95;5.30;;;21.10;80.10;;;;;;5016649;28;20451;-77
2022/09/22 13:37:13;;;;;;;8.90;5.55;;;21.10;80.10;;;;;;4987318;28;20053;-77